WEATHER DATA

TODAY
Time Temp. Dewp. Hum. Wind dir Wind speed Wind gust Bar. 1h Prec. 24h Prec.
00:00 12.1 6.6 69 90 0.3 0.8 1020.4 0.0000 0.0000
00:11 12 6.5 69 90 0.3 0.8 1020.3 0.0000 0.0000
00:21 11.8 6.3 69 90 0.3 0.8 1020.4 0.0000 0.0000
00:31 11.8 6.5 70 90 0.3 0.8 1020.3 0.0000 0.0000
00:41 11.7 6.4 70 90 0.3 0.8 1020.4 0.0000 0.0000
00:51 11.7 6.4 70 90 0.3 0.8 1020.4 0.0000 0.0000
01:01 11.6 6.3 70 90 0.3 0.8 1020.5 0.0000 0.0000
01:11 11.6 6.3 70 90 0.3 0.8 1020.5 0.0000 0.0000
01:22 11.8 6.5 70 90 0.3 0.8 1020.5 0.0000 0.0000
01:32 12 6.7 70 90 0.3 0.8 1020.5 0.0000 0.0000
01:41 12.1 6.8 70 90 0.3 0.8 1020.4 0.0000 0.0000
01:51 12.2 6.9 70 90 0.3 0.8 1020.4 0.0000 0.0000
02:02 12.4 7.1 70 90 0.3 0.8 1020.4 0.0000 0.0000
02:12 12.3 7 70 90 0.3 0.8 1020.4 0.0000 0.0000
02:22 12.4 7.1 70 90 0.3 0.8 1020.4 0.0000 0.0000
02:32 12.4 7.1 70 90 0.3 0.8 1020.5 0.0000 0.0000
02:42 12.4 7.1 70 90 0.3 0.8 1020.4 0.0000 0.0000
02:52 12.4 7.1 70 90 0.3 0.8 1020.4 0.0000 0.0000
03:02 12.4 7.1 70 90 0.3 0.8 1020.4 0.0000 0.0000
03:13 12.3 7 70 90 0.3 0.8 1020.3 0.0000 0.0000
03:22 12.2 6.9 70 90 0.3 0.8 1020.2 0.0000 0.0000
03:32 12.1 6.8 70 90 0.3 0.8 1020.3 0.0000 0.0000
03:43 12 6.7 70 90 0.3 0.8 1020.2 0.0000 0.0000
03:53 11.9 6.6 70 90 0.3 0.8 1020.1 0.0000 0.0000
04:03 12 6.7 70 90 0.3 0.8 1019.9 0.0000 0.0000
04:12 12 6.7 70 90 0.3 0.8 1019.9 0.0000 0.0000
04:23 12 6.7 70 90 0.3 0.8 1019.9 0.0000 0.0000
04:33 12.1 7 71 90 0.3 0.8 1020 0.0000 0.0000
04:43 12.2 7.1 71 90 0.3 0.8 1020 0.0000 0.0000
04:53 12.3 7.2 71 90 0.3 0.8 1020 0.0000 0.0000
05:03 12.3 7.2 71 90 0.3 0.8 1020 0.0000 0.0000
05:13 12.4 7.3 71 90 0.3 0.8 1020.1 0.0000 0.0000
05:23 12.4 7.3 71 90 0.3 0.8 1020.1 0.0000 0.0000
05:34 12.6 7.5 71 90 0.3 0.8 1020.3 0.0000 0.0000
05:44 12.7 7.6 71 90 0.3 0.8 1020.2 0.0000 0.0000
05:53 12.7 7.6 71 90 0.3 0.8 1020.2 0.0000 0.0000
06:04 12.8 7.7 71 90 0.3 0.8 1020.2 0.0000 0.0000
06:14 12.8 7.7 71 90 0.3 0.8 1020.2 0.0000 0.0000
06:24 12.8 7.7 71 90 0.3 0.8 1020.1 0.0000 0.0000
06:34 12.8 7.7 71 90 0.3 0.8 1020.2 0.0000 0.0000
06:44 13 7.9 71 90 0.3 0.8 1020.4 0.0000 0.0000
06:54 13.2 8.1 71 90 0.3 0.8 1020.5 0.0000 0.0000
07:04 13.3 8.2 71 90 0.3 0.8 1020.6 0.0000 0.0000
07:14 13.3 8.2 71 90 0.3 0.8 1020.5 0.0000 0.0000
07:24 13.6 8.4 71 90 0.3 0.8 1020.6 0.0000 0.0000
07:34 14.1 8.9 71 90 0.3 0.8 1020.7 0.0000 0.0000
07:44 14.7 9.5 71 90 0.3 0.8 1020.6 0.0000 0.0000
07:55 15.3 10.1 71 90 0.3 0.8 1020.6 0.0000 0.0000
08:05 15.8 10.6 71 90 0.3 0.8 1020.6 0.0000 0.0000
08:14 16.1 10.8 71 90 0.3 0.8 1020.7 0.0000 0.0000
08:25 16.5 11.2 71 90 0.3 0.8 1020.7 0.0000 0.0000
08:35 16.7 11.4 71 90 0.3 0.8 1020.7 0.0000 0.0000
08:45 16.8 11.3 70 90 0.3 0.8 1020.7 0.0000 0.0000
08:55 17 11.5 70 90 0.3 0.8 1020.6 0.0000 0.0000
09:06 17.6 12.3 71 90 0.3 0.8 1020.6 0.0000 0.0000
09:15 18.1 12.5 70 90 0.3 0.8 1020.6 0.0000 0.0000
09:25 18.6 13 70 90 0.3 0.8 1020.6 0.0000 0.0000
09:35 18.4 12.6 69 90 0.3 0.8 1020.6 0.0000 0.0000
09:46 18.1 12.3 69 90 0.3 0.8 1020.6 0.0000 0.0000
09:56 17.5 11.8 69 90 0.3 0.8 1020.5 0.0000 0.0000
10:06 17.2 11.5 69 90 0.3 0.8 1020.5 0.0000 0.0000
10:16 16.9 11.2 69 90 0.3 0.8 1020.3 0.0000 0.0000
10:26 16.7 11 69 90 0.3 0.8 1020.3 0.0000 0.0000
10:36 16.8 11.1 69 90 0.3 0.8 1020.2 0.0000 0.0000
10:46 16.7 11 69 90 0.3 0.8 1020.2 0.0000 0.0000
10:57 16.8 11.1 69 90 0.3 0.8 1020.2 0.0000 0.0000
11:07 16.7 11 69 90 0.3 0.8 1020.1 0.0000 0.0000
11:16 16.5 10.8 69 90 0.3 0.8 1020.1 0.0000 0.0000
11:27 16.7 11.2 70 90 0.3 0.8 1019.9 0.0000 0.0000
11:37 16.9 11.4 70 90 0.3 0.8 1020 0.0000 0.0000
11:47 17.3 11.8 70 90 0.3 0.8 1019.9 0.0000 0.0000
11:57 18 12.5 70 90 0.3 0.8 1019.8 0.0000 0.0000
12:07 18.2 12.6 70 90 0.3 0.8 1019.8 0.0000 0.0000
12:17 19.1 13.5 70 90 0.3 0.8 1019.6 0.0000 0.0000
12:27 19 13.2 69 90 0.3 0.8 1019.8 0.0000 0.0000
12:37 18.8 13 69 90 0.3 0.8 1019.8 0.0000 0.0000
12:48 19.2 13.4 69 90 0.3 0.8 1019.6 0.0000 0.0000
12:58 19.6 13.8 69 90 0.3 0.8 1019.5 0.0000 0.0000
13:08 19.8 14 69 90 0.3 0.8 1019.5 0.0000 0.0000
13:18 20 14.1 69 90 0.3 0.8 1019.5 0.0000 0.0000
13:28 19.8 13.7 68 90 0.3 0.8 1019.5 0.0000 0.0000
13:38 19.8 13.7 68 90 0.3 0.8 1019.3 0.0000 0.0000
13:48 19.9 13.8 68 90 0.3 0.8 1019.2 0.0000 0.0000
13:59 20.3 14.2 68 90 0.3 0.8 1019 0.0000 0.0000
14:09 20 13.9 68 90 0.3 0.8 1019 0.0000 0.0000
14:18 19.8 13.7 68 90 0.3 0.8 1019 0.0000 0.0000
14:29 19.6 13.5 68 90 0.3 0.8 1019 0.0000 0.0000
14:39 19.7 13.6 68 90 0.3 0.8 1018.9 0.0000 0.0000
14:49 20.3 14.2 68 90 0.3 0.8 1018.6 0.0000 0.0000
14:59 20.4 14.3 68 90 0.3 0.8 1018.6 0.0000 0.0000
15:09 20.5 14.4 68 90 0.3 0.8 1018.6 0.0000 0.0000
15:19 20.7 14.4 67 90 0.3 0.8 1018.3 0.0000 0.0000
15:29 21 14.6 67 90 0.3 0.8 1018.4 0.0000 0.0000
15:39 21 14.6 67 90 0.3 0.8 1018.3 0.0000 0.0000
15:50 21.2 14.8 67 90 0.3 0.8 1018.3 0.0000 0.0000
16:00 21.1 14.7 67 90 0.3 0.8 1018.3 0.0000 0.0000
16:10 21.2 14.8 67 90 0.3 0.8 1018.1 0.0000 0.0000
16:20 21.2 14.6 66 90 0.3 0.8 1018.1 0.0000 0.0000
16:30 20.9 14.3 66 90 0.3 0.8 1018 0.0000 0.0000
16:40 20.7 14.1 66 90 0.3 0.8 1017.7 0.0000 0.0000
16:50 20.6 14 66 90 0.3 0.8 1017.7 0.0000 0.0000
17:01 20.4 13.8 66 90 0.3 0.8 1017.7 0.0000 0.0000
17:10 20.6 14 66 90 0.3 0.8 1017.7 0.0000 0.0000
17:20 20.9 14.3 66 90 0.3 0.8 1017.8 0.0000 0.0000
17:31 21.2 14.6 66 90 0.3 0.8 1017.7 0.0000 0.0000
17:41 21.5 14.9 66 90 0.3 0.8 1017.8 0.0000 0.0000
17:51 21.5 14.9 66 90 0.3 0.8 1017.9 0.0000 0.0000
18:01 21.5 14.6 65 90 0.3 0.8 1018 0.0000 0.0000
18:11 21.4 14.6 65 90 0.3 0.8 1018.1 0.0000 0.0000
18:21 21.3 14.5 65 90 0.3 0.8 1018.1 0.0000 0.0000
18:31 21.2 14.4 65 90 0.3 0.8 1018.1 0.0000 0.0000
18:41 21.3 14.5 65 90 0.3 0.8 1018.1 0.0000 0.0000
18:52 21 14.2 65 90 0.3 0.8 1018.3 0.0000 0.0000
19:02 20.7 13.9 65 90 0.3 0.8 1018.3 0.0000 0.0000
19:12 20.4 13.6 65 90 0.3 0.8 1018.3 0.0000 0.0000
19:22 20.2 13.4 65 90 0.3 0.8 1018.3 0.0000 0.0000
19:32 20 13.2 65 90 0.3 0.8 1018.4 0.0000 0.0000

DAY STATISTIC

2018-06-23
TEMPERATURE
AVERAGE
16.5
HIGH
21.5
17:41
LOW
11.6
01:01
PRESSURE
AVERAGE
1019.7
HIGH
1020.7
07:34
LOW
1017.7
16:40
DEWPOINT
AVERAGE
10.7
HIGH
14.9
17:41
LOW
6.3
00:21
HUMIDITY
AVERAGE
69
HIGH
71
04:33
LOW
65
18:01
WIND SPEED
AVERAGE
0.3
HIGH
0.3
00:00
WIND GUST
AVERAGE
0.8
HIGH
0.8
00:00
WIND DIRECTION
PREVAILING
E
100%
N
0.0
NE
0.0
E
100.0
SE
0.0
S
0.0
SW
0.0
W
0.0
NW
0.0
PRECIPITATION
RAIN HOUR
0.0
RAIN DAY
0.0
TEMPERATURE (°C)
LOW
11.6
HIGH
21.5
AVERAGE
16.5
PRESSURE (hpa)
LOW
1017.7
HIGH
1020.7
AVERAGE
1019.7
DEVICE